Time;durP1;ratioP1;P1;durP2;ratioP2;P2;SDS_P1;SDS_P2;PMS_P1;PMS_P2;Temp;Humidity;BMP_temperature;BMP_pressure;BME280_temperature;BME280_humidity;BME280_pressure;Samples;Min_cycle;Max_cycle;Signal;HPM_P1;HPM_P2
2023/12/15 00:00:34;;;;;;;7.47;6.50;;;;;;;20.02;43.86;101577.38;4603619;31;20060;-59
2023/12/15 00:03:02;;;;;;;7.88;6.82;;;;;;;20.08;43.63;101594.84;4611340;31;20071;-61
2023/12/15 00:05:29;;;;;;;12.25;7.57;;;;;;;20.08;43.63;101595.72;4610050;31;20051;-56
2023/12/15 00:07:57;;;;;;;7.60;6.60;;;;;;;20.11;43.62;101590.09;4610659;31;20056;-61
2023/12/15 00:10:24;;;;;;;7.75;6.28;;;;;;;20.10;43.62;101583.03;4611559;31;20060;-62
2023/12/15 00:12:51;;;;;;;11.00;6.40;;;;;;;20.12;43.46;101599.88;4610652;31;20085;-63
2023/12/15 00:15:19;;;;;;;6.90;6.05;;;;;;;20.10;43.81;101601.84;4609861;31;20063;-62
2023/12/15 00:17:46;;;;;;;7.28;6.00;;;;;;;20.07;43.88;101604.75;4603710;31;20429;-60
2023/12/15 00:20:14;;;;;;;7.25;6.07;;;;;;;20.06;44.00;101612.94;4611713;31;20055;-60
2023/12/15 00:22:41;;;;;;;8.93;6.80;;;;;;;20.04;43.98;101618.41;4612889;31;20059;-60
2023/12/15 00:25:08;;;;;;;7.43;6.20;;;;;;;20.02;44.33;101615.00;4613285;31;20058;-59
2023/12/15 00:27:36;;;;;;;7.22;6.00;;;;;;;20.03;44.36;101619.41;4613497;31;20056;-62
2023/12/15 00:30:05;;;;;;;6.55;5.43;;;;;;;20.04;44.39;101614.88;4614501;31;20056;-59
2023/12/15 00:32:32;;;;;;;6.65;5.82;;;;;;;20.02;44.58;101619.53;4614969;31;20484;-60
2023/12/15 00:35:00;;;;;;;6.65;5.68;;;;;;;20.02;44.70;101627.59;4612481;31;20108;-60
2023/12/15 00:37:27;;;;;;;7.40;5.07;;;;;;;20.00;44.67;101625.84;4613575;31;20074;-59
2023/12/15 00:39:55;;;;;;;6.13;5.53;;;;;;;20.00;44.74;101631.22;4624876;31;20064;-59
2023/12/15 00:42:22;;;;;;;6.28;5.40;;;;;;;20.01;44.58;101629.41;4631029;31;20082;-59
2023/12/15 00:44:49;;;;;;;6.72;5.75;;;;;;;20.00;44.56;101627.69;4629104;31;20051;-59
2023/12/15 00:47:17;;;;;;;6.90;5.63;;;;;;;20.00;44.81;101635.75;4628752;31;20496;-59
2023/12/15 00:49:44;;;;;;;6.88;5.35;;;;;;;19.99;44.74;101636.75;4631155;31;20055;-60
2023/12/15 00:52:12;;;;;;;6.22;5.20;;;;;;;19.98;44.66;101641.25;4630837;31;20499;-60
2023/12/15 00:54:39;;;;;;;7.88;6.10;;;;;;;19.98;44.79;101653.84;4629081;31;20534;-60
2023/12/15 00:57:06;;;;;;;6.35;5.53;;;;;;;19.98;44.64;101659.22;4627109;31;20052;-59
2023/12/15 00:59:33;;;;;;;6.10;4.63;;;;;;;19.98;44.76;101660.06;4611846;31;20062;-60
2023/12/15 01:02:01;;;;;;;7.30;5.30;;;;;;;19.96;44.69;101656.63;4630619;31;20055;-59
2023/12/15 01:04:29;;;;;;;6.60;5.30;;;;;;;19.96;44.71;101655.78;4629430;31;20059;-59
2023/12/15 01:06:56;;;;;;;6.90;5.30;;;;;;;19.94;44.66;101663.97;4629245;31;20052;-59
2023/12/15 01:09:23;;;;;;;6.00;5.40;;;;;;;19.94;44.77;101669.34;4630377;31;20060;-60
2023/12/15 01:11:51;;;;;;;7.40;5.75;;;;;;;19.94;44.63;101672.03;4630514;31;20047;-60
2023/12/15 01:14:18;;;;;;;5.65;4.82;;;;;;;19.94;44.70;101681.94;4628829;31;20059;-60
2023/12/15 01:16:47;;;;;;;6.47;5.18;;;;;;;19.95;44.66;101694.38;4629396;31;20055;-58
2023/12/15 01:19:17;;;;;;;6.95;5.00;;;;;;;19.93;44.69;101685.56;4630850;31;20055;-59
2023/12/15 01:21:45;;;;;;;5.47;4.88;;;;;;;19.94;44.58;101701.59;4630361;31;20156;-59
2023/12/15 01:24:12;;;;;;;7.28;5.40;;;;;;;19.92;44.69;101697.28;4628416;31;20067;-59
2023/12/15 01:26:40;;;;;;;5.80;4.75;;;;;;;19.92;44.71;101708.91;4629415;31;20063;-59
2023/12/15 01:29:07;;;;;;;5.80;5.20;;;;;;;19.92;44.64;101713.41;4630683;31;20385;-60
2023/12/15 01:31:34;;;;;;;6.47;5.40;;;;;;;19.91;44.73;101715.25;4629905;31;20055;-60
2023/12/15 01:34:02;;;;;;;6.60;4.78;;;;;;;19.90;44.60;101710.84;4627717;31;20423;-59
2023/12/15 01:36:29;;;;;;;5.60;4.50;;;;;;;19.91;44.76;101715.25;4629251;31;20391;-59
2023/12/15 01:38:56;;;;;;;5.70;4.60;;;;;;;19.90;44.74;101723.44;4622889;31;20085;-60
2023/12/15 01:41:24;;;;;;;5.57;4.78;;;;;;;19.90;44.72;101721.59;4621349;31;20071;-60
2023/12/15 01:43:52;;;;;;;5.00;4.28;;;;;;;19.89;44.52;101729.75;4627292;31;20051;-60
2023/12/15 01:46:19;;;;;;;6.10;4.93;;;;;;;19.89;44.62;101729.75;4629428;31;20138;-59
2023/12/15 01:48:47;;;;;;;6.03;5.40;;;;;;;19.89;44.63;101721.69;4625469;31;20066;-59
2023/12/15 01:51:15;;;;;;;5.38;4.45;;;;;;;19.88;44.58;101720.84;4629830;31;20051;-59
2023/12/15 01:53:43;;;;;;;6.25;4.63;;;;;;;19.88;44.49;101731.59;4628527;31;20067;-59
2023/12/15 01:56:11;;;;;;;5.55;4.50;;;;;;;19.88;44.45;101736.13;4629636;31;20055;-59
2023/12/15 01:58:38;;;;;;;5.63;4.78;;;;;;;19.87;44.60;101737.94;4616598;31;20048;-59
2023/12/15 02:01:08;;;;;;;5.85;4.55;;;;;;;19.87;44.51;101743.31;4620185;31;20059;-59
2023/12/15 02:03:35;;;;;;;5.10;4.40;;;;;;;19.87;44.54;101740.63;4627421;31;20431;-59
2023/12/15 02:06:03;;;;;;;5.05;4.00;;;;;;;19.86;44.52;101740.75;4641541;30;20067;-59
2023/12/15 02:08:31;;;;;;;5.32;4.07;;;;;;;19.86;44.39;101746.13;4629778;31;20059;-59
2023/12/15 02:10:59;;;;;;;5.05;4.20;;;;;;;19.86;44.49;101748.81;4629509;31;20059;-59
2023/12/15 02:13:26;;;;;;;5.15;4.65;;;;;;;19.86;44.53;101751.50;4626981;31;20056;-59
2023/12/15 02:15:54;;;;;;;5.90;4.68;;;;;;;19.87;44.46;101758.59;4629505;31;20066;-59
2023/12/15 02:18:21;;;;;;;5.10;4.20;;;;;;;19.85;44.40;101756.03;4626552;31;20059;-60
2023/12/15 02:20:48;;;;;;;5.53;4.28;;;;;;;19.85;44.32;101756.03;4629439;31;20063;-60
2023/12/15 02:23:16;;;;;;;5.18;4.68;;;;;;;19.84;44.47;101748.91;4627089;31;20056;-60
2023/12/15 02:25:43;;;;;;;5.05;4.45;;;;;;;19.86;44.46;101751.50;4629365;30;20078;-60
2023/12/15 02:28:11;;;;;;;4.88;3.97;;;;;;;19.85;44.30;101750.66;4629275;31;20055;-60
2023/12/15 02:30:38;;;;;;;5.70;4.38;;;;;;;19.85;44.33;101757.81;4629739;31;20055;-60
2023/12/15 02:33:06;;;;;;;4.38;3.90;;;;;;;19.85;44.26;101760.50;4626828;31;20064;-60
2023/12/15 02:35:34;;;;;;;4.97;3.97;;;;;;;19.85;44.43;101756.03;4628861;31;20454;-60
2023/12/15 02:38:07;;;;;;;5.50;4.10;;;;;;;19.85;44.29;101763.19;4629461;31;20059;-58
2023/12/15 02:40:35;;;;;;;5.22;3.88;;;;;;;19.83;44.41;101755.25;4629029;31;20059;-59
2023/12/15 02:43:02;;;;;;;5.85;4.35;;;;;;;19.84;44.36;101756.97;4625637;31;20055;-59
2023/12/15 02:45:30;;;;;;;5.22;4.20;;;;;;;19.84;44.28;101754.28;4628533;31;20067;-59
2023/12/15 02:47:57;;;;;;;5.18;3.90;;;;;;;19.84;44.17;101761.50;4628754;31;20047;-59
2023/12/15 02:50:25;;;;;;;4.68;3.75;;;;;;;19.83;44.35;101757.09;4629051;31;20063;-59
2023/12/15 02:52:52;;;;;;;4.97;3.85;;;;;;;19.83;44.24;101766.00;4625676;31;20401;-58
2023/12/15 02:55:20;;;;;;;4.13;3.45;;;;;;;19.83;44.37;101762.47;4628563;31;20055;-59
2023/12/15 02:57:47;;;;;;;4.97;3.60;;;;;;;19.82;44.30;101767.00;4629212;31;20051;-59
2023/12/15 03:00:15;;;;;;;6.05;4.30;;;;;;;19.82;44.29;101772.38;4607034;31;20427;-59
2023/12/15 03:02:42;;;;;;;6.18;3.90;;;;;;;19.83;44.31;101767.84;4625845;31;20055;-59
2023/12/15 03:05:09;;;;;;;5.72;3.80;;;;;;;19.83;44.30;101765.16;4628287;30;20066;-59
2023/12/15 03:07:37;;;;;;;6.07;4.05;;;;;;;19.82;44.42;101750.00;4628544;31;20060;-59
2023/12/15 03:10:05;;;;;;;4.78;3.80;;;;;;;19.82;44.19;101752.69;4628984;31;20416;-60
2023/12/15 03:12:32;;;;;;;4.65;3.88;;;;;;;19.81;44.23;101767.09;4625544;31;20100;-59
2023/12/15 03:14:59;;;;;;;4.57;3.70;;;;;;;19.82;44.14;101768.81;4628460;31;20504;-60
2023/12/15 03:17:28;;;;;;;5.15;4.05;;;;;;;19.80;44.28;101770.75;4625094;31;20056;-59
2023/12/15 03:19:56;;;;;;;5.32;3.30;;;;;;;19.81;44.30;101775.16;4626934;31;20085;-60
2023/12/15 03:22:23;;;;;;;5.63;3.78;;;;;;;19.80;44.21;101779.66;4624151;31;20063;-60
2023/12/15 03:24:51;;;;;;;4.00;3.35;;;;;;;19.80;44.25;101773.44;4628595;31;20055;-60
2023/12/15 03:27:18;;;;;;;4.97;3.78;;;;;;;19.80;44.07;101770.75;4628849;31;20055;-59
2023/12/15 03:29:45;;;;;;;4.50;3.60;;;;;;;19.79;44.14;101771.72;4628479;31;20051;-60
2023/12/15 03:32:13;;;;;;;4.63;3.13;;;;;;;19.79;44.19;101767.22;4624751;31;20400;-60
2023/12/15 03:34:40;;;;;;;4.45;3.55;;;;;;;19.79;44.15;101777.09;4628725;31;20055;-60
2023/12/15 03:37:08;;;;;;;6.43;3.70;;;;;;;19.78;44.01;101787.00;4628449;31;20055;-59
2023/12/15 03:39:36;;;;;;;4.38;3.58;;;;;;;19.78;44.08;101792.38;4628601;31;20063;-58
2023/12/15 03:42:06;;;;;;;4.28;3.40;;;;;;;19.79;44.19;101796.75;4618851;31;20070;-58
2023/12/15 03:44:36;;;;;;;5.90;3.63;;;;;;;19.79;43.98;101793.22;4628838;31;20519;-59
2023/12/15 03:47:04;;;;;;;6.32;4.30;;;;;;;19.77;43.91;101798.72;4626531;31;20051;-59
2023/12/15 03:49:33;;;;;;;5.40;3.42;;;;;;;19.76;43.99;101797.84;4626944;31;20527;-60
2023/12/15 03:52:01;;;;;;;4.40;3.38;;;;;;;19.78;43.72;101802.25;4626795;31;20056;-60
2023/12/15 03:54:29;;;;;;;4.50;3.22;;;;;;;19.77;43.92;101809.47;4628158;31;20058;-60
2023/12/15 03:56:57;;;;;;;3.72;3.20;;;;;;;19.76;43.81;101811.28;4643316;30;20063;-59
2023/12/15 03:59:25;;;;;;;4.82;3.38;;;;;;;19.77;43.89;101812.16;4631092;31;20052;-59
2023/12/15 04:01:52;;;;;;;4.78;3.60;;;;;;;19.77;43.91;101820.22;4608608;31;20067;-59
2023/12/15 04:04:20;;;;;;;5.55;3.67;;;;;;;19.76;43.79;101818.47;4631845;31;20048;-59
2023/12/15 04:06:47;;;;;;;4.25;3.25;;;;;;;19.76;43.78;101824.69;4631179;31;20063;-58
2023/12/15 04:09:14;;;;;;;4.35;3.72;;;;;;;19.76;43.70;101823.84;4630690;31;20068;-58
2023/12/15 04:11:42;;;;;;;4.10;3.05;;;;;;;19.76;43.78;101829.22;4629686;31;20067;-58
2023/12/15 04:14:09;;;;;;;4.75;3.72;;;;;;;19.76;44.05;101839.97;4632365;31;20052;-58
2023/12/15 04:16:40;;;;;;;4.28;3.47;;;;;;;19.75;43.60;101841.81;4631664;31;20055;-59
2023/12/15 04:19:07;;;;;;;4.75;3.17;;;;;;;19.74;43.78;101848.16;4630649;31;20059;-60
2023/12/15 04:21:35;;;;;;;6.43;3.25;;;;;;;19.75;43.63;101847.19;4629977;31;20070;-60
2023/12/15 04:24:03;;;;;;;5.20;3.17;;;;;;;19.75;43.47;101857.91;4631457;31;20051;-60
2023/12/15 04:26:30;;;;;;;4.93;3.78;;;;;;;19.76;43.67;101866.84;4631836;31;20063;-59
2023/12/15 04:28:58;;;;;;;3.45;2.92;;;;;;;19.75;43.49;101874.03;4630451;31;20412;-59
2023/12/15 04:31:25;;;;;;;4.10;3.13;;;;;;;19.75;43.64;101876.72;4629653;31;20056;-59
2023/12/15 04:33:53;;;;;;;4.22;3.40;;;;;;;19.75;43.50;101882.09;4644108;30;20062;-59
2023/12/15 04:36:20;;;;;;;4.55;3.22;;;;;;;19.75;43.59;101883.94;4631390;31;20068;-59
2023/12/15 04:38:48;;;;;;;4.18;3.70;;;;;;;19.75;43.48;101883.94;4629608;31;20078;-59
2023/12/15 04:41:23;;;;;;;4.65;3.45;;;;;;;19.75;43.57;101889.31;4629295;31;20064;-59
2023/12/15 04:43:51;;;;;;;4.05;2.83;;;;;;;19.74;43.45;101880.41;4631001;31;20062;-59
2023/12/15 04:46:37;;;;;;;4.65;3.28;;;;;;;19.73;43.58;101884.06;4630869;31;20439;-59
2023/12/15 04:49:05;;;;;;;4.10;3.22;;;;;;;19.74;43.61;101887.59;4628499;31;20071;-60
2023/12/15 04:51:33;;;;;;;4.35;3.47;;;;;;;19.72;43.54;101892.19;4630893;31;20393;-60
2023/12/15 04:54:00;;;;;;;4.95;3.10;;;;;;;19.73;43.42;101889.44;4630812;31;20400;-60
2023/12/15 04:56:27;;;;;;;4.20;3.45;;;;;;;19.73;43.58;101900.19;4630212;31;20051;-59
2023/12/15 04:58:55;;;;;;;3.72;3.13;;;;;;;19.73;43.44;101907.38;4629359;31;20138;-60
2023/12/15 05:01:25;;;;;;;4.05;3.22;;;;;;;19.72;43.43;101911.88;4622643;31;20505;-59
2023/12/15 05:03:52;;;;;;;4.40;3.35;;;;;;;19.71;43.33;101909.31;4620927;31;20063;-60
2023/12/15 05:06:21;;;;;;;3.70;3.15;;;;;;;19.69;43.64;101917.47;4629558;31;20059;-59
2023/12/15 05:08:53;;;;;;;3.88;2.70;;;;;;;19.70;43.53;101916.50;4628868;31;20083;-60
2023/12/15 05:11:20;;;;;;;3.90;3.50;;;;;;;19.70;43.36;101915.66;4630595;31;20051;-60
2023/12/15 05:13:48;;;;;;;3.95;3.35;;;;;;;19.70;43.46;101927.25;4630135;31;20051;-60
2023/12/15 05:16:16;;;;;;;4.57;3.28;;;;;;;19.70;43.56;101921.03;4628776;31;20427;-59
2023/12/15 05:18:44;;;;;;;4.57;3.58;;;;;;;19.69;43.39;101932.75;4628842;31;20070;-59
2023/12/15 05:21:11;;;;;;;4.57;3.10;;;;;;;19.69;43.55;101932.75;4630436;31;20051;-60
2023/12/15 05:23:39;;;;;;;4.45;3.40;;;;;;;19.68;43.47;101934.53;4630492;31;20062;-60
2023/12/15 05:26:07;;;;;;;4.00;3.42;;;;;;;19.68;43.56;101941.75;4628238;31;20055;-59
2023/12/15 05:28:34;;;;;;;3.83;3.25;;;;;;;19.69;43.35;101935.44;4628958;31;20062;-60
2023/12/15 05:31:01;;;;;;;4.00;3.00;;;;;;;19.68;43.30;101936.38;4630434;31;20062;-60
2023/12/15 05:33:29;;;;;;;4.90;3.65;;;;;;;19.68;43.34;101947.13;4630451;31;20066;-60
2023/12/15 05:35:56;;;;;;;5.35;3.53;;;;;;;19.67;43.40;101946.25;4628330;31;20504;-59
2023/12/15 05:38:24;;;;;;;5.05;3.42;;;;;;;19.67;43.19;101923.91;4626278;31;20066;-59
2023/12/15 05:40:52;;;;;;;3.78;3.13;;;;;;;19.67;43.27;101930.16;4630212;31;20055;-59
2023/12/15 05:43:20;;;;;;;3.78;3.13;;;;;;;19.68;43.30;101941.75;4629668;31;20059;-60
2023/12/15 05:45:47;;;;;;;4.03;3.20;;;;;;;19.67;43.21;101943.56;4628502;31;20059;-59
2023/12/15 05:48:16;;;;;;;4.25;3.30;;;;;;;19.66;43.44;101949.06;4626580;31;20396;-60
2023/12/15 05:50:44;;;;;;;4.10;3.08;;;;;;;19.67;43.29;101950.78;4629923;31;20055;-60
2023/12/15 05:53:11;;;;;;;4.55;3.53;;;;;;;19.67;43.17;101951.63;4630126;31;20059;-60
2023/12/15 05:55:38;;;;;;;4.88;3.03;;;;;;;19.68;43.27;101952.50;4627991;31;20055;-60
2023/12/15 05:58:05;;;;;;;4.32;3.75;;;;;;;19.67;43.38;101951.63;4629389;31;20512;-59
2023/12/15 06:00:33;;;;;;;4.45;3.38;;;;;;;19.67;43.37;101961.53;4629879;31;20067;-61
2023/12/15 06:03:00;;;;;;;4.22;3.10;;;;;;;19.68;43.79;101966.78;4612952;31;20068;-60
2023/12/15 06:05:28;;;;;;;4.10;2.97;;;;;;;19.69;43.94;101971.22;4622397;31;20055;-60
2023/12/15 06:07:55;;;;;;;4.15;3.05;;;;;;;19.67;43.58;101970.44;4628846;31;20055;-59
2023/12/15 06:10:23;;;;;;;4.05;3.22;;;;;;;19.66;43.48;101963.34;4629993;31;20062;-59
2023/12/15 06:12:50;;;;;;;5.30;3.20;;;;;;;19.67;43.58;101970.44;4629318;31;20060;-59
2023/12/15 06:15:17;;;;;;;3.63;3.08;;;;;;;19.67;43.44;101975.81;4627309;31;20496;-58
2023/12/15 06:17:44;;;;;;;3.50;2.72;;;;;;;19.68;43.79;101968.63;4628951;31;20059;-60
2023/12/15 06:20:13;;;;;;;4.57;2.88;;;;;;;19.68;43.98;101974.84;4623129;31;20055;-59
2023/12/15 06:22:41;;;;;;;3.85;2.90;;;;;;;19.67;43.77;101983.88;4629500;31;20063;-59
2023/12/15 06:25:08;;;;;;;3.75;3.10;;;;;;;19.67;43.73;101986.56;4627574;31;20055;-60
2023/12/15 06:27:36;;;;;;;3.88;3.15;;;;;;;19.67;43.65;102002.69;4628575;31;20062;-59
2023/12/15 06:30:05;;;;;;;3.22;2.70;;;;;;;19.67;43.76;101997.31;4629086;31;20066;-59
2023/12/15 06:32:32;;;;;;;4.13;3.25;;;;;;;19.67;43.91;101991.06;4629754;31;20066;-59
2023/12/15 06:35:00;;;;;;;3.85;2.80;;;;;;;19.67;43.98;101988.41;4626666;31;20056;-59
2023/12/15 06:37:27;;;;;;;4.10;3.13;;;;;;;19.66;43.92;101994.75;4628790;31;20500;-59
2023/12/15 06:39:55;;;;;;;3.83;2.67;;;;;;;19.65;43.58;102001.94;4629229;31;20436;-59
2023/12/15 06:42:22;;;;;;;4.60;3.28;;;;;;;19.65;43.52;102006.47;4629002;31;20062;-59
2023/12/15 06:44:50;;;;;;;4.50;3.17;;;;;;;19.65;43.57;102009.16;4626353;31;20059;-59
2023/12/15 06:47:17;;;;;;;4.70;3.30;;;;;;;19.64;43.64;102005.56;4628639;31;20054;-59
2023/12/15 06:49:45;;;;;;;3.90;3.00;;;;;;;19.63;43.60;102017.28;4628915;31;20209;-59
2023/12/15 06:52:12;;;;;;;4.68;3.38;;;;;;;19.63;43.45;102022.66;4628978;31;20428;-59
2023/12/15 06:54:39;;;;;;;3.95;2.92;;;;;;;19.62;43.51;102028.16;4626419;31;20058;-59
2023/12/15 06:57:07;;;;;;;5.00;3.38;;;;;;;19.61;43.32;102035.34;4628291;31;20416;-59
2023/12/15 06:59:34;;;;;;;3.65;2.72;;;;;;;19.62;43.51;102030.84;4628925;31;20062;-59
2023/12/15 07:02:02;;;;;;;3.78;2.90;;;;;;;19.60;43.51;102028.22;4628851;31;20055;-59
2023/12/15 07:04:29;;;;;;;4.85;3.03;;;;;;;19.61;43.31;102037.16;4605742;31;20048;-59
2023/12/15 07:06:57;;;;;;;4.88;2.90;;;;;;;19.60;43.31;102036.25;4627347;31;20055;-58
2023/12/15 07:09:24;;;;;;;4.35;3.08;;;;;;;19.60;43.47;102038.09;4628753;31;20066;-58
2023/12/15 07:11:51;;;;;;;3.50;2.70;;;;;;;19.59;43.25;102047.13;4629220;31;20071;-58
2023/12/15 07:14:19;;;;;;;4.00;3.20;;;;;;;19.59;43.17;102047.13;4626597;31;20063;-58
2023/12/15 07:16:46;;;;;;;3.60;3.08;;;;;;;19.60;43.21;102049.69;4640744;30;20052;-59
2023/12/15 07:19:14;;;;;;;3.90;2.92;;;;;;;19.61;43.41;102054.16;4615565;31;20565;-59
2023/12/15 07:21:41;;;;;;;3.90;3.00;;;;;;;19.62;43.73;102052.31;4629090;31;20066;-59
2023/12/15 07:24:09;;;;;;;4.63;3.45;;;;;;;19.61;43.45;102050.59;4626310;31;20420;-58
2023/12/15 07:26:36;;;;;;;3.60;3.00;;;;;;;19.61;43.17;102053.28;4628769;31;20059;-59
2023/12/15 07:29:04;;;;;;;7.97;3.22;;;;;;;19.61;43.52;102053.28;4628279;31;20077;-59
2023/12/15 07:31:32;;;;;;;4.60;2.90;;;;;;;19.61;43.72;102058.66;4628904;31;20055;-59
2023/12/15 07:33:59;;;;;;;5.55;3.97;;;;;;;19.60;43.61;102063.13;4626055;31;20071;-59
2023/12/15 07:36:27;;;;;;;4.47;3.42;;;;;;;19.62;43.51;102071.13;4627871;31;20056;-59
2023/12/15 07:38:54;;;;;;;4.47;3.28;;;;;;;19.62;43.71;102074.69;4627724;31;20082;-59
2023/12/15 07:41:22;;;;;;;6.45;4.13;;;;;;;19.63;43.97;102078.22;4630959;31;20048;-59
2023/12/15 07:43:49;;;;;;;4.50;3.22;;;;;;;19.62;43.82;102080.06;4626149;31;20055;-59
2023/12/15 07:46:18;;;;;;;4.60;3.63;;;;;;;19.62;43.66;102081.88;4628352;31;20063;-59
2023/12/15 07:48:45;;;;;;;4.50;3.40;;;;;;;19.61;43.35;102090.88;4628875;31;20066;-59
2023/12/15 07:51:17;;;;;;;5.18;3.50;;;;;;;19.62;43.52;102092.63;4628734;31;20055;-59
2023/12/15 07:53:46;;;;;;;5.30;3.35;;;;;;;19.61;43.39;102090.88;4625630;31;20055;-59
2023/12/15 07:56:24;;;;;;;5.25;3.72;;;;;;;19.60;43.33;102089.13;4610700;31;20056;-59
2023/12/15 07:58:52;;;;;;;4.53;3.47;;;;;;;19.58;43.20;102100.00;4628438;31;20056;-59
2023/12/15 08:01:21;;;;;;;5.80;3.30;;;;;;;19.60;43.20;102099.88;4627559;31;20060;-59
2023/12/15 08:03:50;;;;;;;8.30;3.55;;;;;;;19.60;43.70;102098.03;4626360;31;20504;-59
2023/12/15 08:06:17;;;;;;;5.82;4.00;;;;;;;19.62;43.71;102104.22;4627189;31;20063;-59
2023/12/15 08:08:47;;;;;;;4.95;3.22;;;;;;;19.62;43.49;102106.91;4628393;31;20060;-60
2023/12/15 08:11:14;;;;;;;5.78;3.72;;;;;;;19.63;43.97;102108.63;4629498;31;20059;-60
2023/12/15 08:13:42;;;;;;;4.70;3.63;;;;;;;19.65;43.62;102112.09;4624724;31;20056;-60
2023/12/15 08:16:10;;;;;;;5.20;4.00;;;;;;;19.66;43.71;102123.69;4619898;31;20051;-59
2023/12/15 08:18:42;;;;;;;6.13;4.38;;;;;;;19.67;43.29;102128.94;4628224;31;20412;-59
2023/12/15 08:21:11;;;;;;;5.00;3.70;;;;;;;19.67;43.28;102137.00;4618619;31;20059;-59
2023/12/15 08:23:38;;;;;;;4.60;3.92;;;;;;;19.67;43.30;102139.69;4640309;30;20427;-59
2023/12/15 08:26:07;;;;;;;5.55;3.97;;;;;;;19.68;43.28;102145.94;4628144;31;20060;-59
2023/12/15 08:28:35;;;;;;;6.07;4.03;;;;;;;19.69;43.08;102142.31;4627940;31;20392;-60
2023/12/15 08:31:03;;;;;;;5.25;3.83;;;;;;;19.70;43.48;102142.19;4628080;31;20400;-60
2023/12/15 08:33:30;;;;;;;5.45;3.63;;;;;;;19.70;43.29;102141.34;4627555;31;20059;-60
2023/12/15 08:35:57;;;;;;;5.70;3.83;;;;;;;19.71;43.21;102146.59;4628313;31;20058;-59
2023/12/15 08:38:25;;;;;;;4.75;3.78;;;;;;;19.73;43.04;102149.19;4627945;31;20067;-61
2023/12/15 08:40:54;;;;;;;5.47;3.78;;;;;;;19.73;43.12;102155.44;4625712;31;20059;-61
2023/12/15 08:43:21;;;;;;;5.53;4.15;;;;;;;19.73;43.22;102155.44;4629086;31;20059;-61
2023/12/15 08:45:49;;;;;;;5.43;3.72;;;;;;;19.74;42.94;102158.97;4631269;31;20688;-59
2023/12/15 08:48:17;;;;;;;4.97;4.15;;;;;;;19.75;43.09;102164.22;4631587;31;20077;-60
2023/12/15 08:50:44;;;;;;;5.85;4.38;;;;;;;19.75;42.68;102168.75;4628920;31;20083;-61
2023/12/15 08:53:12;;;;;;;6.72;4.85;;;;;;;19.74;42.04;102175.09;4633574;31;20535;-60
2023/12/15 08:55:39;;;;;;;5.97;4.70;;;;;;;19.73;41.98;102179.59;4624502;31;20051;-60
2023/12/15 08:58:07;;;;;;;4.88;4.18;;;;;;;19.72;41.94;102182.38;4629712;31;20177;-59
2023/12/15 09:00:35;;;;;;;4.63;3.78;;;;;;;19.74;42.16;102193.91;4617378;31;20059;-60
2023/12/15 09:03:03;;;;;;;7.00;4.35;;;;;;;19.74;42.25;102200.13;4612507;31;20428;-60
2023/12/15 09:05:32;;;;;;;5.03;3.90;;;;;;;19.75;42.34;102203.69;4630501;30;20067;-61
2023/12/15 09:08:19;;;;;;;5.07;4.22;;;;;;;19.75;42.39;102207.22;4628887;31;20055;-58
2023/12/15 09:10:50;;;;;;;4.65;4.07;;;;;;;19.75;42.44;102212.59;4629596;31;20114;-59
2023/12/15 09:13:18;;;;;;;5.18;4.03;;;;;;;19.77;42.46;102215.19;4630783;31;20070;-59
2023/12/15 09:15:46;;;;;;;6.05;3.83;;;;;;;19.76;42.34;102219.69;4630381;31;20052;-59
2023/12/15 09:18:14;;;;;;;4.38;3.45;;;;;;;19.78;42.47;102224.97;4628159;31;20063;-58
2023/12/15 09:20:42;;;;;;;5.00;3.83;;;;;;;19.79;42.63;102234.75;4630117;31;20055;-59
2023/12/15 09:23:10;;;;;;;4.80;4.00;;;;;;;19.79;42.51;102236.59;4629438;31;20067;-58
2023/12/15 09:25:37;;;;;;;4.72;3.83;;;;;;;19.81;42.58;102248.09;4630259;31;20055;-58
2023/12/15 09:28:05;;;;;;;5.70;4.20;;;;;;;19.81;42.59;102248.09;4622395;31;20444;-60
2023/12/15 09:30:33;;;;;;;5.15;3.75;;;;;;;19.81;42.56;102254.34;4630200;31;20059;-60
2023/12/15 09:33:01;;;;;;;6.45;4.32;;;;;;;19.83;42.75;102243.47;4630724;31;20496;-60
2023/12/15 09:35:29;;;;;;;7.28;4.28;;;;;;;19.84;42.81;102242.50;4623023;31;20313;-62
2023/12/15 09:37:56;;;;;;;5.32;4.22;;;;;;;19.84;42.70;102247.88;4629667;31;20419;-58
2023/12/15 09:40:24;;;;;;;4.97;3.83;;;;;;;19.82;42.72;102245.31;4642787;30;20067;-58
2023/12/15 09:42:51;;;;;;;5.70;4.47;;;;;;;19.82;42.60;102256.06;4630314;31;20420;-58
2023/12/15 09:45:19;;;;;;;6.10;4.60;;;;;;;19.83;42.39;102263.16;4630135;31;20055;-58
2023/12/15 09:47:47;;;;;;;5.43;4.28;;;;;;;19.83;42.56;102273.03;4627316;30;20056;-60
2023/12/15 09:50:17;;;;;;;6.88;4.68;;;;;;;19.83;42.39;102273.91;4612193;31;20084;-62
2023/12/15 09:52:45;;;;;;;6.45;4.35;;;;;;;19.83;42.38;102273.91;4630168;31;20372;-61
2023/12/15 09:55:13;;;;;;;4.68;4.20;;;;;;;19.81;42.55;102277.63;4629695;31;20059;-62
2023/12/15 09:57:41;;;;;;;5.50;4.40;;;;;;;19.82;42.50;102276.69;4626537;31;20055;-58
2023/12/15 10:00:09;;;;;;;6.22;5.22;;;;;;;19.81;42.23;102281.22;4629920;31;20066;-59
2023/12/15 10:02:40;;;;;;;7.13;5.50;;;;;;;19.82;42.21;102276.69;4630205;31;20067;-58
2023/12/15 10:05:08;;;;;;;6.95;5.43;;;;;;;19.81;42.33;102266.88;4629724;31;20055;-58
2023/12/15 10:07:35;;;;;;;7.55;5.28;;;;;;;19.82;42.48;102269.50;4627073;31;20108;-58
2023/12/15 10:10:03;;;;;;;7.47;5.13;;;;;;;19.81;42.42;102265.09;4629888;31;20062;-58
2023/12/15 10:12:30;;;;;;;7.32;5.53;;;;;;;19.81;42.52;102266.88;4629825;31;20062;-59
2023/12/15 10:14:58;;;;;;;7.00;5.68;;;;;;;19.82;42.47;102274.00;4628427;31;20055;-59
2023/12/15 10:17:26;;;;;;;7.70;5.95;;;;;;;19.82;42.79;102282.06;4627378;31;20043;-58
2023/12/15 10:20:10;;;;;;;7.43;5.68;;;;;;;19.81;42.55;102270.47;4629681;31;20059;-58
2023/12/15 10:22:39;;;;;;;6.43;5.30;;;;;;;19.80;42.59;102273.22;4629841;31;20063;-58
2023/12/15 10:25:20;;;;;;;8.05;5.40;;;;;;;19.80;42.54;102273.22;4627291;31;20059;-58
2023/12/15 10:27:49;;;;;;;6.80;5.55;;;;;;;19.80;42.63;102274.09;4622493;31;20062;-59
2023/12/15 10:30:17;;;;;;;6.57;4.97;;;;;;;19.80;42.60;102278.63;4629557;31;20058;-58
2023/12/15 10:32:45;;;;;;;7.10;5.13;;;;;;;19.80;42.55;102279.47;4628874;31;20507;-58
2023/12/15 10:35:13;;;;;;;6.50;5.30;;;;;;;19.80;42.48;102284.00;4627755;31;20063;-59
2023/12/15 10:37:43;;;;;;;6.22;4.93;;;;;;;19.79;42.45;102277.75;4629111;31;20408;-61
2023/12/15 10:40:12;;;;;;;5.60;4.72;;;;;;;19.79;42.51;102276.91;4629249;31;20520;-62
2023/12/15 10:42:41;;;;;;;6.45;4.82;;;;;;;19.78;42.54;102270.66;4628006;31;20067;-62
2023/12/15 10:45:09;;;;;;;7.72;5.20;;;;;;;19.79;42.73;102274.22;4628388;31;20064;-62
2023/12/15 10:47:37;;;;;;;7.50;4.60;;;;;;;19.78;42.62;102275.19;4627995;31;20056;-60
2023/12/15 10:50:07;;;;;;;6.18;4.68;;;;;;;19.79;42.82;102279.59;4624667;31;20059;-62
2023/12/15 10:52:39;;;;;;;6.60;4.90;;;;;;;19.78;42.79;102283.25;4628792;31;20055;-62
2023/12/15 10:55:08;;;;;;;5.60;4.40;;;;;;;19.78;42.82;102280.56;4626987;31;20059;-62
2023/12/15 10:57:36;;;;;;;6.43;4.78;;;;;;;19.78;42.77;102280.56;4621905;31;20385;-61
2023/12/15 11:00:05;;;;;;;6.43;4.60;;;;;;;19.79;42.77;102276.91;4629090;31;20074;-58
2023/12/15 11:02:36;;;;;;;5.72;4.35;;;;;;;19.79;42.94;102279.59;4626065;31;20059;-58
2023/12/15 11:05:09;;;;;;;5.95;5.03;;;;;;;19.79;42.99;102282.28;4641374;30;20055;-58
2023/12/15 11:07:39;;;;;;;5.10;3.70;;;;;;;19.78;42.96;102275.19;4628817;31;20047;-60
2023/12/15 11:10:09;;;;;;;6.80;5.13;;;;;;;19.79;42.84;102283.13;4628327;31;20081;-58
2023/12/15 11:12:39;;;;;;;6.15;4.85;;;;;;;19.78;42.91;102281.41;4627258;31;20064;-60
2023/12/15 11:15:09;;;;;;;8.13;4.38;;;;;;;19.79;42.95;102290.34;4627573;31;20063;-59
2023/12/15 11:17:58;;;;;;;5.72;4.35;;;;;;;19.79;42.95;102282.28;4628949;31;20047;-60
2023/12/15 11:20:26;;;;;;;6.30;4.72;;;;;;;19.78;42.88;102276.03;4624404;31;20071;-60
2023/12/15 11:23:07;;;;;;;6.03;4.90;;;;;;;19.78;42.83;102270.66;4620094;31;20074;-59
2023/12/15 11:25:53;;;;;;;6.60;4.68;;;;;;;19.76;43.00;102276.13;4629131;31;20445;-60
2023/12/15 11:28:21;;;;;;;5.82;4.07;;;;;;;19.79;43.04;102282.28;4626174;31;20056;-60